Time;durP1;ratioP1;P1;durP2;ratioP2;P2;SDS_P1;SDS_P2;PMS_P1;PMS_P2;Temp;Humidity;BMP_temperature;BMP_pressure;BME280_temperature;BME280_humidity;BME280_pressure;Samples;Min_cycle;Max_cycle;Signal;HPM_P1;HPM_P2
2020/12/16 00:01:53;;;;;;;61.65;36.90;;;7.30;70.10;;;;;;5025617;28;20024;-58
2020/12/16 00:04:20;;;;;;;65.97;37.25;;;7.40;70.20;;;;;;5025025;28;20025;-57
2020/12/16 00:06:45;;;;;;;61.03;36.22;;;7.20;70.60;;;;;;5019449;28;20079;-59
2020/12/16 00:09:11;;;;;;;62.08;37.33;;;7.10;71.00;;;;;;5025324;28;20468;-60
2020/12/16 00:11:37;;;;;;;62.88;38.55;;;7.10;71.50;;;;;;5031140;28;20029;-58
2020/12/16 00:14:02;;;;;;;64.68;38.40;;;7.10;71.70;;;;;;5031383;28;20108;-60
2020/12/16 00:16:28;;;;;;;64.25;39.22;;;7.10;71.50;;;;;;5012803;28;20108;-58
2020/12/16 00:18:54;;;;;;;67.10;38.75;;;7.10;71.30;;;;;;5012065;28;20037;-57
2020/12/16 00:21:21;;;;;;;68.00;38.10;;;7.10;71.30;;;;;;5011926;28;20022;-58
2020/12/16 00:23:47;;;;;;;63.80;38.47;;;7.10;71.40;;;;;;5011812;28;20466;-57
2020/12/16 00:26:14;;;;;;;62.22;36.38;;;7.10;71.40;;;;;;5012075;28;20034;-56
2020/12/16 00:28:41;;;;;;;64.20;38.55;;;7.00;71.60;;;;;;5011119;28;20076;-58
2020/12/16 00:31:07;;;;;;;59.95;35.85;;;7.00;71.60;;;;;;5012079;28;20036;-58
2020/12/16 00:33:33;;;;;;;62.33;37.10;;;7.00;71.70;;;;;;5011404;28;20462;-58
2020/12/16 00:35:59;;;;;;;61.60;36.45;;;6.90;71.90;;;;;;5012196;28;20022;-56
2020/12/16 00:41:09;;;;;;;61.20;35.45;;;7.00;71.60;;;;;;5015775;28;20045;-58
2020/12/16 00:43:35;;;;;;;64.90;37.00;;;7.00;71.30;;;;;;5016752;28;20029;-58
2020/12/16 00:46:01;;;;;;;63.70;37.03;;;7.00;71.40;;;;;;5035407;28;20374;-57
2020/12/16 00:48:27;;;;;;;62.53;35.42;;;6.90;71.80;;;;;;5035781;28;20056;-59
2020/12/16 00:50:53;;;;;;;63.10;37.78;;;6.80;71.80;;;;;;5035349;28;20021;-58
2020/12/16 00:53:37;;;;;;;65.45;35.80;;;6.80;72.10;;;;;;5035821;28;20025;-58
2020/12/16 00:56:05;;;;;;;60.67;36.92;;;6.80;72.20;;;;;;5029702;28;20050;-58
2020/12/16 00:58:31;;;;;;;62.53;37.75;;;6.70;72.60;;;;;;5015810;28;20406;-57
2020/12/16 01:00:56;;;;;;;62.38;37.05;;;6.70;72.60;;;;;;5015493;28;20053;-58
2020/12/16 01:03:22;;;;;;;61.33;35.88;;;6.80;72.50;;;;;;5030653;28;20390;-56
2020/12/16 01:05:48;;;;;;;60.22;35.00;;;6.80;72.20;;;;;;5032502;28;20072;-56
2020/12/16 01:08:14;;;;;;;63.15;37.20;;;6.90;71.90;;;;;;5014210;28;20033;-58
2020/12/16 01:10:39;;;;;;;69.38;39.60;;;6.90;71.90;;;;;;5033307;28;20018;-57
2020/12/16 01:13:05;;;;;;;62.75;35.83;;;6.90;71.80;;;;;;5033724;28;20025;-57
2020/12/16 01:15:30;;;;;;;65.07;38.05;;;6.90;71.70;;;;;;5034565;28;20094;-59
2020/12/16 01:17:56;;;;;;;60.60;35.53;;;6.90;71.80;;;;;;5018253;28;20010;-57
2020/12/16 01:20:22;;;;;;;67.80;37.40;;;6.80;71.90;;;;;;5014858;28;20025;-58
2020/12/16 01:22:48;;;;;;;64.45;38.35;;;6.90;71.90;;;;;;5014126;28;20022;-58
2020/12/16 01:25:21;;;;;;;66.97;38.10;;;6.90;71.80;;;;;;5030510;28;20041;-56
2020/12/16 01:27:59;;;;;;;69.13;38.38;;;6.90;71.70;;;;;;5022464;28;20450;-58
2020/12/16 01:30:26;;;;;;;67.50;37.33;;;6.90;71.80;;;;;;5019980;28;20101;-55
2020/12/16 01:32:53;;;;;;;62.17;36.83;;;6.90;71.70;;;;;;5014650;28;20022;-57
2020/12/16 01:35:19;;;;;;;66.30;37.70;;;6.90;71.60;;;;;;5013627;28;20037;-58
2020/12/16 01:37:45;;;;;;;65.80;36.17;;;7.00;71.50;;;;;;5015718;28;20105;-60
2020/12/16 01:40:11;;;;;;;65.80;36.25;;;7.00;71.30;;;;;;5014931;28;20152;-57
2020/12/16 01:42:39;;;;;;;72.00;37.55;;;7.00;71.30;;;;;;5015254;28;20026;-51
2020/12/16 01:45:18;;;;;;;67.85;37.72;;;7.00;71.40;;;;;;5014954;28;20017;-57
2020/12/16 01:47:43;;;;;;;63.80;36.50;;;7.00;71.40;;;;;;5012741;28;20085;-56
2020/12/16 01:50:11;;;;;;;67.88;38.30;;;7.00;71.60;;;;;;5014383;28;20407;-60
2020/12/16 01:52:56;;;;;;;65.55;37.30;;;7.00;71.50;;;;;;5032332;28;20022;-59
2020/12/16 01:55:25;;;;;;;68.57;39.47;;;7.00;71.70;;;;;;5033975;28;20107;-57
2020/12/16 01:57:56;;;;;;;66.15;37.53;;;7.00;71.70;;;;;;5016893;28;20026;-58
2020/12/16 02:00:24;;;;;;;67.07;38.25;;;7.00;71.70;;;;;;5014349;28;20029;-57
2020/12/16 02:02:52;;;;;;;65.32;37.20;;;7.00;71.50;;;;;;5013973;28;20057;-58
2020/12/16 02:05:19;;;;;;;68.55;40.40;;;7.00;71.80;;;;;;5015082;28;20036;-57
2020/12/16 02:07:46;;;;;;;68.22;39.03;;;6.90;72.00;;;;;;5013509;28;20029;-58
2020/12/16 02:10:13;;;;;;;72.82;40.03;;;6.90;72.00;;;;;;5014243;28;20061;-59
2020/12/16 02:12:39;;;;;;;69.38;38.75;;;6.90;72.00;;;;;;5028768;28;20029;-60
2020/12/16 02:15:06;;;;;;;68.70;38.88;;;6.90;72.00;;;;;;5014100;28;20034;-59
2020/12/16 02:17:32;;;;;;;70.82;38.95;;;6.90;72.00;;;;;;5013884;28;20018;-58
2020/12/16 02:20:00;;;;;;;69.38;38.85;;;6.80;72.10;;;;;;5013610;28;20036;-58
2020/12/16 02:22:26;;;;;;;69.45;38.17;;;6.80;72.40;;;;;;5013664;28;20026;-58
2020/12/16 02:25:11;;;;;;;73.30;41.33;;;6.80;72.70;;;;;;5013220;28;20029;-59
2020/12/16 02:27:39;;;;;;;70.43;37.63;;;6.80;72.70;;;;;;5013561;28;20049;-61
2020/12/16 02:30:07;;;;;;;67.22;38.40;;;6.80;72.80;;;;;;5021132;28;20048;-58
2020/12/16 02:32:33;;;;;;;75.95;38.70;;;6.80;72.80;;;;;;5013862;28;20017;-58
2020/12/16 02:34:59;;;;;;;71.30;39.97;;;6.70;73.30;;;;;;5013143;28;20025;-63
2020/12/16 02:37:25;;;;;;;64.85;37.72;;;6.60;73.30;;;;;;5013792;28;20101;-57
2020/12/16 02:39:51;;;;;;;70.22;40.72;;;6.70;73.50;;;;;;5022158;28;20036;-55
2020/12/16 02:42:22;;;;;;;71.53;38.80;;;6.70;73.20;;;;;;5033370;28;20388;-57
2020/12/16 02:44:48;;;;;;;73.43;39.50;;;6.70;73.10;;;;;;5025462;28;20049;-58
2020/12/16 02:47:14;;;;;;;76.80;39.85;;;6.70;73.20;;;;;;5033397;28;20494;-59
2020/12/16 02:49:40;;;;;;;65.90;38.25;;;6.70;73.20;;;;;;5019864;28;20033;-60
2020/12/16 02:52:05;;;;;;;72.53;38.33;;;6.70;73.30;;;;;;5013865;28;20030;-59
2020/12/16 02:54:31;;;;;;;64.75;37.20;;;6.70;73.30;;;;;;5012049;28;20477;-57
2020/12/16 02:56:56;;;;;;;66.28;37.13;;;6.70;73.50;;;;;;5012650;28;20058;-58
2020/12/16 02:59:27;;;;;;;70.90;39.90;;;6.60;73.70;;;;;;5013348;28;20022;-57
2020/12/16 03:01:54;;;;;;;68.03;38.70;;;6.60;73.70;;;;;;5012823;28;20033;-59
2020/12/16 03:04:21;;;;;;;71.43;38.08;;;6.70;73.70;;;;;;5013410;28;20021;-58
2020/12/16 03:06:47;;;;;;;69.10;38.20;;;6.70;73.60;;;;;;5012367;28;20099;-58
2020/12/16 03:09:17;;;;;;;77.22;40.78;;;6.70;73.30;;;;;;5013319;28;20121;-57
2020/12/16 03:11:43;;;;;;;71.15;39.67;;;6.70;73.40;;;;;;5012703;28;20079;-59
2020/12/16 03:14:09;;;;;;;69.65;40.00;;;6.80;73.20;;;;;;5020262;28;20100;-58
2020/12/16 03:16:35;;;;;;;67.07;38.22;;;6.90;72.80;;;;;;5012898;28;20026;-58
2020/12/16 03:19:02;;;;;;;70.18;38.80;;;6.90;72.80;;;;;;5012209;28;20033;-57
2020/12/16 03:21:28;;;;;;;76.47;39.72;;;6.90;72.80;;;;;;5013181;28;20025;-55
2020/12/16 03:23:55;;;;;;;71.20;39.40;;;6.90;72.60;;;;;;5012457;28;20021;-57
2020/12/16 03:26:21;;;;;;;75.90;39.80;;;6.90;72.50;;;;;;5012838;28;20069;-56
2020/12/16 03:28:47;;;;;;;72.20;38.75;;;6.90;72.50;;;;;;5012502;28;20099;-59
2020/12/16 03:31:13;;;;;;;74.32;39.03;;;7.00;72.40;;;;;;5013962;28;20103;-58
2020/12/16 03:33:41;;;;;;;72.72;38.70;;;7.00;72.20;;;;;;5026326;28;20033;-58
2020/12/16 03:36:07;;;;;;;71.00;37.50;;;7.10;71.90;;;;;;5032494;28;20043;-57
2020/12/16 03:38:32;;;;;;;76.78;38.90;;;7.00;72.00;;;;;;5032389;28;20077;-58
2020/12/16 03:40:58;;;;;;;72.32;37.13;;;7.00;72.10;;;;;;5030914;28;20545;-59
2020/12/16 03:43:24;;;;;;;72.55;37.90;;;7.00;72.00;;;;;;5032031;28;20028;-59
2020/12/16 03:45:50;;;;;;;72.28;38.28;;;6.90;72.20;;;;;;5031162;28;20025;-56
2020/12/16 03:48:16;;;;;;;72.88;38.40;;;6.90;72.80;;;;;;5031933;28;20480;-55
2020/12/16 03:50:42;;;;;;;69.78;37.65;;;6.90;72.80;;;;;;5030261;28;20454;-61
2020/12/16 03:53:08;;;;;;;76.55;38.25;;;6.80;73.00;;;;;;5031883;28;20094;-58
2020/12/16 03:55:34;;;;;;;75.57;40.22;;;6.80;72.90;;;;;;5031937;28;20038;-57
2020/12/16 03:57:59;;;;;;;72.65;39.65;;;6.80;73.30;;;;;;5029434;28;20078;-56
2020/12/16 04:00:25;;;;;;;80.47;40.95;;;6.80;73.40;;;;;;5031861;28;20052;-57
2020/12/16 04:02:50;;;;;;;82.65;40.85;;;6.80;73.30;;;;;;5027793;28;20296;-55
2020/12/16 04:05:16;;;;;;;84.95;39.47;;;6.80;73.60;;;;;;5031650;28;20374;-58
2020/12/16 04:07:42;;;;;;;81.93;40.25;;;6.70;73.80;;;;;;5031758;28;20107;-54
2020/12/16 04:10:08;;;;;;;82.32;39.70;;;6.70;74.00;;;;;;5047204;28;20029;-58
2020/12/16 04:12:33;;;;;;;81.57;41.03;;;6.60;74.40;;;;;;5031394;28;20021;-56
2020/12/16 04:14:59;;;;;;;82.78;42.80;;;6.50;74.70;;;;;;5031258;28;20438;-54
2020/12/16 04:17:25;;;;;;;82.05;41.47;;;6.60;74.70;;;;;;5025566;28;20032;-57
2020/12/16 04:19:50;;;;;;;79.85;40.42;;;6.70;74.20;;;;;;5011178;28;20025;-58
2020/12/16 04:22:16;;;;;;;90.15;41.83;;;6.70;74.20;;;;;;5012161;28;20030;-56
2020/12/16 04:24:42;;;;;;;84.40;41.72;;;6.60;74.20;;;;;;5011691;28;20033;-57
2020/12/16 04:27:07;;;;;;;80.65;41.03;;;6.60;74.40;;;;;;5011518;28;20454;-58
2020/12/16 04:29:33;;;;;;;81.93;42.10;;;6.70;74.30;;;;;;5012126;28;20029;-58
2020/12/16 04:31:58;;;;;;;74.45;38.17;;;6.70;74.20;;;;;;5019071;28;20351;-57
2020/12/16 04:34:24;;;;;;;81.25;40.28;;;6.70;74.10;;;;;;5031078;28;20037;-57
2020/12/16 04:36:51;;;;;;;83.68;39.88;;;6.60;74.30;;;;;;5030952;28;20104;-59
2020/12/16 04:39:18;;;;;;;75.07;37.90;;;6.70;74.60;;;;;;5031469;28;20026;-58
2020/12/16 04:41:44;;;;;;;82.13;42.05;;;6.60;74.40;;;;;;5031430;28;20045;-57
2020/12/16 04:44:12;;;;;;;77.47;38.17;;;6.60;74.90;;;;;;5029991;28;20576;-55
2020/12/16 04:46:40;;;;;;;78.63;40.05;;;6.50;74.80;;;;;;5023219;28;20030;-58
2020/12/16 04:49:07;;;;;;;85.38;41.30;;;6.50;75.00;;;;;;5016774;28;20056;-58
2020/12/16 04:51:38;;;;;;;84.07;41.25;;;6.60;75.10;;;;;;5031235;28;20119;-57
2020/12/16 04:54:04;;;;;;;77.80;38.97;;;6.60;75.00;;;;;;5029616;28;20017;-57
2020/12/16 04:56:32;;;;;;;81.82;40.00;;;6.60;74.80;;;;;;5009577;28;20046;-58
2020/12/16 04:58:58;;;;;;;89.15;42.17;;;6.60;75.10;;;;;;5010796;28;20099;-57
2020/12/16 05:01:23;;;;;;;85.57;39.83;;;6.60;75.20;;;;;;5016511;28;20022;-56
2020/12/16 05:03:49;;;;;;;86.18;40.08;;;6.50;75.40;;;;;;5024665;28;20421;-58
2020/12/16 05:06:34;;;;;;;86.68;40.63;;;6.40;75.90;;;;;;5026467;28;20447;-58
2020/12/16 05:09:14;;;;;;;92.50;40.75;;;6.40;76.20;;;;;;5010931;28;20026;-60
2020/12/16 05:11:48;;;;;;;86.03;41.58;;;6.40;76.60;;;;;;5015814;28;20029;-58
2020/12/16 05:14:16;;;;;;;89.40;41.35;;;6.50;76.40;;;;;;5011740;28;20458;-58
2020/12/16 05:17:00;;;;;;;96.68;42.80;;;6.60;76.20;;;;;;5013414;28;20026;-57
2020/12/16 05:19:36;;;;;;;93.03;41.65;;;6.60;76.20;;;;;;5012372;28;20475;-58
2020/12/16 05:22:23;;;;;;;101.05;41.35;;;6.60;76.00;;;;;;5027694;28;20018;-58
2020/12/16 05:24:55;;;;;;;100.18;43.63;;;6.50;76.30;;;;;;5033994;28;20080;-59
2020/12/16 05:27:32;;;;;;;92.97;42.60;;;6.50;76.70;;;;;;5033365;28;20038;-60
2020/12/16 05:30:09;;;;;;;101.35;43.22;;;6.60;76.50;;;;;;5038434;28;20018;-57
2020/12/16 05:32:36;;;;;;;104.90;44.10;;;6.50;76.60;;;;;;5034836;28;20021;-56
2020/12/16 05:35:22;;;;;;;90.20;42.25;;;6.60;76.60;;;;;;5033969;28;20025;-56
2020/12/16 05:37:48;;;;;;;100.53;41.83;;;6.70;76.20;;;;;;5034255;28;20025;-58
2020/12/16 05:40:17;;;;;;;89.57;39.97;;;6.80;75.80;;;;;;5026361;28;20068;-57
2020/12/16 05:42:50;;;;;;;92.65;40.78;;;6.80;75.50;;;;;;5014482;28;20105;-58
2020/12/16 05:45:21;;;;;;;93.00;40.42;;;6.70;75.70;;;;;;5029313;28;20017;-60
2020/12/16 05:47:58;;;;;;;91.70;40.08;;;6.60;76.20;;;;;;5034308;28;20029;-56
2020/12/16 05:50:24;;;;;;;86.53;38.45;;;6.50;76.50;;;;;;5034129;28;20025;-57
2020/12/16 05:53:06;;;;;;;90.85;40.30;;;6.40;77.00;;;;;;5033805;28;20024;-61
2020/12/16 05:55:31;;;;;;;87.32;39.85;;;6.40;77.30;;;;;;5034385;28;20021;-59
2020/12/16 05:58:08;;;;;;;97.72;40.95;;;6.50;77.30;;;;;;5031864;28;20029;-56
2020/12/16 06:00:46;;;;;;;96.80;38.22;;;6.60;77.00;;;;;;5033717;28;20076;-60
2020/12/16 06:03:16;;;;;;;90.53;39.22;;;6.50;76.80;;;;;;5019930;28;20116;-57
2020/12/16 06:05:48;;;;;;;88.90;38.03;;;6.50;77.50;;;;;;5019067;28;20474;-58
2020/12/16 06:08:14;;;;;;;85.50;38.92;;;6.40;77.40;;;;;;5016872;28;20132;-56
2020/12/16 06:10:44;;;;;;;87.70;37.00;;;6.40;77.90;;;;;;5015723;28;20177;-59
2020/12/16 06:13:13;;;;;;;91.65;38.88;;;6.30;78.10;;;;;;5027791;28;20029;-57
2020/12/16 06:16:10;;;;;;;89.38;39.65;;;6.20;78.60;;;;;;5003321;28;20132;-59
2020/12/16 06:18:44;;;;;;;95.65;37.88;;;6.20;79.00;;;;;;5022377;28;20048;-61
2020/12/16 06:21:14;;;;;;;92.70;36.75;;;6.10;79.10;;;;;;5039167;28;20598;-58
2020/12/16 06:23:41;;;;;;;95.60;38.40;;;6.10;79.30;;;;;;5027060;28;20033;-58
2020/12/16 06:26:13;;;;;;;96.38;37.30;;;6.10;79.60;;;;;;5023276;28;20038;-59
2020/12/16 06:28:40;;;;;;;89.07;37.45;;;6.00;79.90;;;;;;5021989;28;20036;-56
2020/12/16 06:31:05;;;;;;;90.28;37.75;;;6.00;80.30;;;;;;5020822;28;20103;-57
2020/12/16 06:33:41;;;;;;;93.32;37.17;;;6.00;80.40;;;;;;5026174;28;20440;-58
2020/12/16 06:36:10;;;;;;;89.68;36.67;;;6.00;81.30;;;;;;5024378;28;20036;-58
2020/12/16 06:38:42;;;;;;;79.03;33.88;;;6.00;81.40;;;;;;5018991;28;20040;-59
2020/12/16 06:41:15;;;;;;;84.70;35.42;;;6.00;80.50;;;;;;5013831;28;20029;-58
2020/12/16 06:43:44;;;;;;;79.97;34.70;;;6.00;80.40;;;;;;5016683;28;20033;-63
2020/12/16 06:46:30;;;;;;;90.82;35.38;;;6.00;80.60;;;;;;5012646;28;20042;-60
2020/12/16 06:49:01;;;;;;;80.80;34.30;;;6.10;80.20;;;;;;5021004;28;20084;-59
2020/12/16 06:51:30;;;;;;;77.18;33.05;;;6.20;79.60;;;;;;5021782;28;20029;-60
2020/12/16 06:54:25;;;;;;;77.32;34.00;;;6.20;79.90;;;;;;5022865;28;20040;-61
2020/12/16 06:57:09;;;;;;;80.40;32.90;;;6.20;79.90;;;;;;5017571;28;20050;-60
2020/12/16 06:59:47;;;;;;;80.75;35.53;;;6.20;79.60;;;;;;5021682;28;20022;-61
2020/12/16 07:02:24;;;;;;;73.18;32.72;;;6.20;79.80;;;;;;5022000;28;20049;-59
2020/12/16 07:04:50;;;;;;;84.97;34.17;;;6.30;80.10;;;;;;5022695;28;20022;-60
2020/12/16 07:07:48;;;;;;;78.15;32.00;;;6.30;79.30;;;;;;5025650;28;20227;-60
2020/12/16 07:10:36;;;;;;;82.05;34.17;;;6.30;78.70;;;;;;5027531;28;20581;-58
2020/12/16 07:13:27;;;;;;;82.20;32.42;;;6.30;79.30;;;;;;5019999;28;20033;-58
2020/12/16 07:15:54;;;;;;;81.68;33.63;;;6.30;79.20;;;;;;5023205;28;20037;-56
2020/12/16 07:18:42;;;;;;;81.20;32.15;;;6.30;79.60;;;;;;5025496;28;20076;-58
2020/12/16 07:21:08;;;;;;;83.20;34.42;;;6.40;79.50;;;;;;5021744;28;20441;-60
2020/12/16 07:23:47;;;;;;;81.40;33.65;;;6.40;79.40;;;;;;5027445;28;20022;-58
2020/12/16 07:26:23;;;;;;;73.45;30.33;;;6.50;79.50;;;;;;5020104;28;20143;-58
2020/12/16 07:28:49;;;;;;;77.18;33.35;;;6.60;78.50;;;;;;5019942;28;20022;-60
2020/12/16 07:31:15;;;;;;;63.08;28.42;;;6.60;78.20;;;;;;5019641;28;20025;-59
2020/12/16 07:33:41;;;;;;;79.20;32.85;;;6.50;78.00;;;;;;5023242;28;20022;-59
2020/12/16 07:36:08;;;;;;;75.97;31.40;;;6.40;78.30;;;;;;5024998;28;20482;-62
2020/12/16 07:38:34;;;;;;;83.25;33.72;;;6.40;78.40;;;;;;5012003;28;20079;-60
2020/12/16 07:41:00;;;;;;;84.07;34.15;;;6.30;79.00;;;;;;5028391;28;20198;-58
2020/12/16 07:43:26;;;;;;;81.38;33.90;;;6.40;79.40;;;;;;5022864;28;20375;-60
2020/12/16 07:46:05;;;;;;;79.80;33.78;;;6.50;79.20;;;;;;5014648;28;20133;-58
2020/12/16 07:48:32;;;;;;;70.70;31.30;;;6.50;79.70;;;;;;5024905;28;20459;-58
2020/12/16 07:51:02;;;;;;;69.60;30.00;;;6.60;78.50;;;;;;5024062;28;20018;-62
2020/12/16 07:53:27;;;;;;;75.60;32.92;;;6.60;78.20;;;;;;5027455;28;20017;-59
2020/12/16 07:56:02;;;;;;;70.05;30.83;;;6.60;78.40;;;;;;5017751;28;20083;-58
2020/12/16 07:58:29;;;;;;;66.57;29.27;;;6.60;78.40;;;;;;5009946;28;20048;-59
2020/12/16 08:01:18;;;;;;;72.75;32.20;;;6.60;78.20;;;;;;5016565;28;20041;-60
2020/12/16 08:03:45;;;;;;;69.13;30.63;;;6.60;77.90;;;;;;5013849;28;20149;-60
2020/12/16 08:06:12;;;;;;;70.45;30.95;;;6.60;77.50;;;;;;5021684;28;20053;-59
2020/12/16 08:08:46;;;;;;;86.18;42.17;;;6.70;78.10;;;;;;5021616;28;20479;-61
2020/12/16 08:11:16;;;;;;;78.82;32.28;;;6.70;78.00;;;;;;5014114;28;20051;-60
2020/12/16 08:13:42;;;;;;;71.43;32.40;;;6.70;77.40;;;;;;5020076;28;20033;-58
2020/12/16 08:16:08;;;;;;;72.25;32.20;;;6.80;76.80;;;;;;5016304;28;20116;-59
2020/12/16 08:18:38;;;;;;;74.85;33.08;;;6.70;77.30;;;;;;5023468;28;20104;-59
2020/12/16 08:21:14;;;;;;;64.72;31.55;;;6.70;77.00;;;;;;5019734;28;20026;-60
2020/12/16 08:23:40;;;;;;;71.03;30.98;;;6.70;76.70;;;;;;5019927;28;20113;-58
2020/12/16 08:26:06;;;;;;;66.53;31.13;;;6.70;76.80;;;;;;5019621;28;20121;-60
2020/12/16 08:28:31;;;;;;;61.33;29.05;;;6.80;76.40;;;;;;5019205;28;20470;-58
2020/12/16 08:30:58;;;;;;;66.30;30.70;;;6.80;76.10;;;;;;5019749;28;20030;-61
2020/12/16 08:33:25;;;;;;;66.15;30.23;;;6.80;76.00;;;;;;5021367;28;20038;-60
2020/12/16 08:36:00;;;;;;;65.13;28.17;;;6.70;76.00;;;;;;5026665;28;20032;-58
2020/12/16 08:38:35;;;;;;;65.18;31.23;;;6.70;76.20;;;;;;5022185;28;20108;-58
2020/12/16 08:41:02;;;;;;;66.95;29.75;;;6.70;76.30;;;;;;5027283;28;20048;-60
2020/12/16 08:43:30;;;;;;;63.67;31.95;;;6.70;75.70;;;;;;5030906;28;20621;-59
2020/12/16 08:46:08;;;;;;;67.65;31.95;;;6.70;76.20;;;;;;5025697;28;20057;-60
2020/12/16 08:48:47;;;;;;;69.22;31.95;;;6.70;76.40;;;;;;5015925;28;20048;-60
2020/12/16 08:51:17;;;;;;;69.53;31.08;;;6.80;75.90;;;;;;5010742;28;20442;-58
2020/12/16 08:53:46;;;;;;;70.20;32.97;;;6.90;76.10;;;;;;5010515;28;20335;-59
2020/12/16 08:56:24;;;;;;;65.20;30.58;;;7.00;75.40;;;;;;5017178;28;20110;-59
2020/12/16 08:59:04;;;;;;;72.97;33.13;;;7.00;74.00;;;;;;5016025;28;20404;-58
2020/12/16 09:01:30;;;;;;;69.70;32.50;;;6.90;75.00;;;;;;5015010;28;20104;-59
2020/12/16 09:03:55;;;;;;;63.65;30.63;;;6.80;75.00;;;;;;5028334;28;20458;-59
2020/12/16 09:06:21;;;;;;;60.92;27.98;;;6.90;74.60;;;;;;5032267;28;20233;-61
2020/12/16 09:08:48;;;;;;;57.38;29.20;;;6.70;74.50;;;;;;5032916;28;20041;-61
2020/12/16 09:11:16;;;;;;;57.83;29.48;;;6.70;74.90;;;;;;5031993;28;20073;-60
2020/12/16 09:16:26;;;;;;;61.92;28.70;;;6.70;75.20;;;;;;5014109;28;20100;-60
2020/12/16 09:18:53;;;;;;;62.08;30.02;;;6.70;74.90;;;;;;5020415;28;20071;-59
2020/12/16 09:21:31;;;;;;;57.40;27.45;;;6.70;74.40;;;;;;5022450;28;20086;-60
2020/12/16 09:23:57;;;;;;;67.50;33.03;;;6.70;74.40;;;;;;5031335;28;20026;-59
2020/12/16 09:26:37;;;;;;;61.83;31.38;;;6.90;74.50;;;;;;5027639;28;20049;-59
2020/12/16 09:29:14;;;;;;;61.72;29.65;;;7.00;74.30;;;;;;5024695;28;20095;-64
2020/12/16 09:31:40;;;;;;;54.65;28.73;;;7.10;73.60;;;;;;5031552;28;20057;-59
2020/12/16 09:34:05;;;;;;;57.15;27.98;;;7.10;73.00;;;;;;5032733;28;20064;-60
2020/12/16 09:36:31;;;;;;;57.15;29.00;;;7.10;72.30;;;;;;5011716;28;20056;-59
2020/12/16 09:39:03;;;;;;;55.70;28.75;;;7.10;72.50;;;;;;5024291;28;20026;-61
2020/12/16 09:41:40;;;;;;;58.75;29.95;;;7.10;72.70;;;;;;5022806;28;20113;-60
2020/12/16 09:44:06;;;;;;;52.72;27.67;;;7.20;73.00;;;;;;5013616;28;20072;-60
2020/12/16 09:46:31;;;;;;;59.03;28.85;;;7.40;72.30;;;;;;5022730;28;20030;-60
2020/12/16 09:49:00;;;;;;;49.55;25.38;;;7.40;72.30;;;;;;5014930;28;20116;-60
2020/12/16 09:51:44;;;;;;;47.10;25.88;;;7.40;71.00;;;;;;5026737;28;20040;-60
2020/12/16 09:54:10;;;;;;;51.08;27.73;;;7.40;71.00;;;;;;5029996;28;20107;-60
2020/12/16 09:56:35;;;;;;;53.67;28.48;;;7.40;71.10;;;;;;5025354;28;20537;-60
2020/12/16 09:59:02;;;;;;;51.55;27.33;;;7.40;71.20;;;;;;5013467;28;20022;-61
2020/12/16 10:01:28;;;;;;;53.28;28.00;;;7.40;71.50;;;;;;5019366;28;20104;-61
2020/12/16 10:03:53;;;;;;;58.10;32.72;;;7.40;71.20;;;;;;5013176;28;20500;-61
2020/12/16 10:06:19;;;;;;;53.63;27.70;;;7.50;70.70;;;;;;5012869;28;20030;-58
2020/12/16 10:08:45;;;;;;;52.58;26.60;;;7.50;70.50;;;;;;5024580;28;20068;-60
2020/12/16 10:11:15;;;;;;;50.15;26.83;;;7.50;70.30;;;;;;5030950;28;20014;-61
2020/12/16 10:13:43;;;;;;;46.55;24.55;;;7.50;69.90;;;;;;5025663;28;20066;-60
2020/12/16 10:16:09;;;;;;;44.67;24.70;;;7.50;70.00;;;;;;5013136;28;20475;-60
2020/12/16 10:18:36;;;;;;;44.50;25.73;;;7.50;70.20;;;;;;5013321;28;20030;-61
2020/12/16 10:21:03;;;;;;;49.17;26.30;;;7.60;69.80;;;;;;5013782;28;20030;-60
2020/12/16 10:23:29;;;;;;;46.55;24.27;;;7.60;70.10;;;;;;5027022;28;20052;-61
2020/12/16 10:25:55;;;;;;;50.58;25.30;;;7.60;69.90;;;;;;5018723;28;20037;-61
2020/12/16 10:28:23;;;;;;;42.08;22.67;;;7.50;70.60;;;;;;5027078;28;20351;-60
2020/12/16 10:30:49;;;;;;;43.63;22.85;;;7.40;70.00;;;;;;5024575;28;20022;-59
2020/12/16 10:33:15;;;;;;;43.65;23.33;;;7.30;70.30;;;;;;5018947;28;20393;-59
2020/12/16 10:35:42;;;;;;;43.58;22.52;;;7.30;70.80;;;;;;5028350;28;20033;-59
2020/12/16 10:38:08;;;;;;;42.95;22.50;;;7.40;70.30;;;;;;5025404;28;20056;-62
2020/12/16 10:40:34;;;;;;;43.85;23.45;;;7.40;70.70;;;;;;5025211;28;20022;-59
2020/12/16 10:43:01;;;;;;;46.58;23.52;;;7.50;70.60;;;;;;5029965;28;20028;-61
2020/12/16 10:45:27;;;;;;;44.90;24.00;;;7.50;69.90;;;;;;5044640;28;20402;-61
2020/12/16 10:47:57;;;;;;;46.60;23.02;;;7.60;69.40;;;;;;5028297;28;20482;-61
2020/12/16 10:50:32;;;;;;;49.53;27.17;;;7.70;68.80;;;;;;5020902;28;20032;-60
2020/12/16 10:52:59;;;;;;;42.20;23.00;;;7.70;69.20;;;;;;5027360;28;20129;-61
2020/12/16 10:55:25;;;;;;;43.30;23.23;;;7.70;69.30;;;;;;5031922;28;20041;-61
2020/12/16 10:57:51;;;;;;;42.00;22.08;;;7.70;69.30;;;;;;5030805;28;20049;-60
2020/12/16 11:00:17;;;;;;;43.35;21.83;;;7.70;68.90;;;;;;5028244;28;20042;-63
2020/12/16 11:02:43;;;;;;;44.65;23.55;;;7.60;69.00;;;;;;5018686;28;20041;-62
2020/12/16 11:05:09;;;;;;;43.85;23.63;;;7.50;70.20;;;;;;5023652;28;20056;-60
2020/12/16 11:07:34;;;;;;;45.55;24.25;;;7.50;70.60;;;;;;5028108;28;20076;-61
2020/12/16 11:10:00;;;;;;;43.53;24.00;;;7.50;70.60;;;;;;5022813;28;20598;-61
2020/12/16 11:12:27;;;;;;;44.72;23.23;;;7.40;71.00;;;;;;5017391;28;20049;-62
2020/12/16 11:14:53;;;;;;;46.13;24.33;;;7.40;70.70;;;;;;5025261;28;20034;-62
2020/12/16 11:17:18;;;;;;;43.58;23.92;;;7.40;71.10;;;;;;5026019;28;20037;-61
2020/12/16 11:19:44;;;;;;;47.58;25.55;;;7.40;71.30;;;;;;5016974;28;20030;-61
2020/12/16 11:22:12;;;;;;;45.88;25.42;;;7.10;72.00;;;;;;5016898;28;20050;-66
2020/12/16 11:24:39;;;;;;;46.60;25.42;;;7.10;73.20;;;;;;5021492;28;20064;-61
2020/12/16 11:27:05;;;;;;;50.25;25.63;;;7.10;73.00;;;;;;5023845;28;20148;-59
2020/12/16 11:29:31;;;;;;;55.30;27.27;;;7.20;73.00;;;;;;5024698;28;20501;-61
2020/12/16 11:31:57;;;;;;;51.67;27.02;;;7.20;72.30;;;;;;5019890;28;20101;-60
2020/12/16 11:34:27;;;;;;;50.35;25.80;;;7.20;72.80;;;;;;5017340;28;20361;-60
2020/12/16 11:36:56;;;;;;;48.83;26.00;;;7.10;72.50;;;;;;5046287;28;20037;-59
2020/12/16 11:39:24;;;;;;;55.28;27.42;;;7.00;73.10;;;;;;5022873;28;20026;-60
2020/12/16 11:41:51;;;;;;;51.80;26.67;;;6.90;73.00;;;;;;5029193;28;20048;-60
2020/12/16 11:44:19;;;;;;;52.55;26.75;;;6.80;73.50;;;;;;5044711;28;20033;-56
2020/12/16 11:46:45;;;;;;;57.05;28.45;;;6.60;73.90;;;;;;5031771;28;20034;-58
2020/12/16 11:49:11;;;;;;;56.10;30.02;;;6.60;74.50;;;;;;5030452;28;20026;-61
2020/12/16 11:51:37;;;;;;;59.88;30.67;;;6.70;74.40;;;;;;5026666;28;20113;-55
2020/12/16 11:54:04;;;;;;;57.42;29.80;;;6.80;74.40;;;;;;5035986;28;20056;-58
2020/12/16 11:56:33;;;;;;;55.92;29.50;;;7.00;73.20;;;;;;5014357;28;20394;-57
2020/12/16 11:58:59;;;;;;;50.13;28.00;;;7.00;72.60;;;;;;5027221;28;20055;-57
2020/12/16 12:01:44;;;;;;;54.83;28.08;;;7.20;72.20;;;;;;5019095;28;20029;-60
2020/12/16 12:04:09;;;;;;;53.15;27.92;;;7.30;71.70;;;;;;5018001;28;20053;-60
2020/12/16 12:06:35;;;;;;;49.28;28.35;;;7.30;71.90;;;;;;5023516;28;20029;-61
2020/12/16 12:09:01;;;;;;;53.60;27.75;;;7.40;71.10;;;;;;5019497;28;20044;-60
2020/12/16 12:11:27;;;;;;;53.03;27.85;;;7.50;71.10;;;;;;5022307;28;20036;-58
2020/12/16 12:13:52;;;;;;;50.53;28.30;;;7.50;71.20;;;;;;5028454;28;20362;-60
2020/12/16 12:16:18;;;;;;;53.72;29.77;;;7.50;70.60;;;;;;5028920;28;20044;-59
2020/12/16 12:18:44;;;;;;;52.60;28.40;;;7.50;71.00;;;;;;5027545;28;20029;-59
2020/12/16 12:21:11;;;;;;;50.70;27.50;;;7.50;70.50;;;;;;5022442;28;20029;-61
2020/12/16 12:23:37;;;;;;;50.17;28.95;;;7.50;70.80;;;;;;5011581;28;20029;-62
2020/12/16 12:26:22;;;;;;;51.08;28.25;;;7.50;70.90;;;;;;5011070;28;20069;-59
2020/12/16 12:28:47;;;;;;;50.42;27.40;;;7.50;70.80;;;;;;5021422;28;20037;-56
2020/12/16 12:31:13;;;;;;;47.83;27.02;;;7.50;70.90;;;;;;5030444;28;20120;-63
2020/12/16 12:33:38;;;;;;;49.88;26.65;;;7.50;70.80;;;;;;5032155;28;20057;-58
2020/12/16 12:36:04;;;;;;;51.83;27.92;;;7.60;70.50;;;;;;5032671;28;20037;-58
2020/12/16 12:38:30;;;;;;;51.95;28.58;;;7.50;70.10;;;;;;5023709;28;20115;-59
2020/12/16 12:40:55;;;;;;;49.58;26.48;;;7.50;70.90;;;;;;5016382;28;20487;-59
2020/12/16 12:43:21;;;;;;;54.47;28.77;;;7.50;70.30;;;;;;5026590;28;20057;-59
2020/12/16 12:45:47;;;;;;;53.08;30.67;;;7.50;70.20;;;;;;5021002;28;20038;-60
2020/12/16 12:48:12;;;;;;;59.72;29.48;;;7.40;70.40;;;;;;5028038;28;20104;-59
2020/12/16 12:50:40;;;;;;;53.00;29.42;;;7.50;71.10;;;;;;5031397;28;20025;-56